createdAt,value
2023-03-21T00:05:31.694Z,90.05
2023-03-21T00:15:44.125Z,27.88
2023-03-21T00:25:57.339Z,23.08
2023-03-21T00:36:05.242Z,15.23
2023-03-21T00:46:09.490Z,18.35
2023-03-21T00:56:11.350Z,15.82
2023-03-21T01:06:13.608Z,12.60
2023-03-21T01:16:15.604Z,19.20
2023-03-21T01:26:17.957Z,15.63
2023-03-21T01:36:24.315Z,17.55
2023-03-21T01:46:49.647Z,20.23
2023-03-21T01:57:21.794Z,14.18
2023-03-21T02:07:33.489Z,16.53
2023-03-21T02:18:02.279Z,17.30
2023-03-21T02:28:20.647Z,21.23
2023-03-21T02:38:37.521Z,22.10
2023-03-21T02:48:51.099Z,28.27
2023-03-21T02:58:54.587Z,29.67
2023-03-21T03:09:03.000Z,24.35
2023-03-21T03:19:11.055Z,31.52
2023-03-21T03:29:19.870Z,22.35
2023-03-21T03:39:27.125Z,23.75
2023-03-21T03:49:46.622Z,24.75
2023-03-21T03:59:49.273Z,23.98
2023-03-21T04:09:58.838Z,55.28
2023-03-21T04:20:10.916Z,55.42
2023-03-21T04:30:14.778Z,54.03
2023-03-21T04:40:30.028Z,32.75
2023-03-21T04:50:32.124Z,39.83
2023-03-21T05:00:35.194Z,34.65
2023-03-21T05:10:37.144Z,28.92
2023-03-21T05:20:40.797Z,34.42
2023-03-21T05:30:42.791Z,34.88
2023-03-21T05:40:49.196Z,44.38
2023-03-21T05:50:54.033Z,36.33
2023-03-21T06:00:57.424Z,40.83
2023-03-21T06:11:12.162Z,41.38
2023-03-21T06:21:14.433Z,38.70
2023-03-21T06:31:17.102Z,44.08
2023-03-21T06:41:19.186Z,42.88
2023-03-21T06:51:31.295Z,56.30
2023-03-21T07:01:49.266Z,48.08
2023-03-21T07:11:51.350Z,54.28
2023-03-21T07:21:54.212Z,39.00
2023-03-21T07:31:56.200Z,33.45
2023-03-21T07:41:58.195Z,32.58
2023-03-21T07:52:06.767Z,43.30
2023-03-21T08:02:14.468Z,27.85
2023-03-21T08:12:16.282Z,28.80
2023-03-21T08:22:18.130Z,38.72
2023-03-21T08:32:20.686Z,46.28
2023-03-21T08:42:23.331Z,34.55
2023-03-21T08:52:26.027Z,32.20
2023-03-21T09:02:27.889Z,42.40
2023-03-21T09:12:29.940Z,55.65
2023-03-21T09:22:31.837Z,54.85
2023-03-21T09:32:34.349Z,58.85
2023-03-21T09:42:50.609Z,69.80
2023-03-21T09:53:17.751Z,42.97
2023-03-21T10:03:25.446Z,48.03
2023-03-21T10:13:32.248Z,44.28
2023-03-21T10:23:34.246Z,40.78
2023-03-21T10:33:40.052Z,38.00
2023-03-21T10:43:42.895Z,46.60
2023-03-21T10:54:15.738Z,42.38
2023-03-21T11:04:24.496Z,37.67
2023-03-21T11:14:38.015Z,48.60
2023-03-21T11:24:40.340Z,52.53
2023-03-21T11:35:01.665Z,57.08
2023-03-21T11:45:16.986Z,48.30
2023-03-21T11:55:35.914Z,40.70
2023-03-21T12:05:52.335Z,73.40
2023-03-21T12:16:21.925Z,57.42
2023-03-21T12:26:28.103Z,54.45
2023-03-21T12:36:51.833Z,65.40
2023-03-21T12:46:59.435Z,56.00
2023-03-21T12:57:13.240Z,83.10
2023-03-21T13:07:19.908Z,57.10
2023-03-21T13:17:34.975Z,42.55
2023-03-21T13:27:38.525Z,31.67
2023-03-21T13:37:49.088Z,38.75
2023-03-21T13:47:59.476Z,40.50
2023-03-21T13:58:31.155Z,36.45
2023-03-21T14:08:37.696Z,44.33
2023-03-21T14:18:59.814Z,44.58
2023-03-21T14:29:22.863Z,38.63
2023-03-21T14:39:32.933Z,46.50
2023-03-21T14:49:38.744Z,53.17
2023-03-21T14:59:42.104Z,33.95
2023-03-21T15:09:57.282Z,36.30
2023-03-21T15:19:59.336Z,47.40
2023-03-21T15:30:01.328Z,38.28
2023-03-21T15:40:20.623Z,46.58
2023-03-21T15:50:22.424Z,34.67
2023-03-21T16:00:33.804Z,34.80
2023-03-21T16:21:00.336Z,43.00
2023-03-21T16:31:02.627Z,32.13
2023-03-21T16:41:09.870Z,44.08
2023-03-21T16:51:17.009Z,35.38
2023-03-21T17:01:21.177Z,44.65
2023-03-21T17:11:25.536Z,64.60
2023-03-21T17:21:29.626Z,55.17
2023-03-21T17:31:35.098Z,45.42
2023-03-21T17:41:37.000Z,42.63
2023-03-21T17:51:39.174Z,42.15
2023-03-21T18:01:41.339Z,57.05
2023-03-21T18:11:43.177Z,63.47
2023-03-21T18:21:45.834Z,70.32
2023-03-21T18:32:04.397Z,63.45
2023-03-21T18:42:07.508Z,59.93
2023-03-21T18:52:14.170Z,87.85
2023-03-21T19:02:16.300Z,76.40
2023-03-21T19:12:18.295Z,79.53
2023-03-21T19:22:20.156Z,73.80
2023-03-21T19:32:23.106Z,64.47
2023-03-21T19:42:28.429Z,70.28
2023-03-21T19:52:31.958Z,86.55
2023-03-21T20:02:36.100Z,81.43
2023-03-21T20:12:38.391Z,88.22
2023-03-21T20:23:05.804Z,120.68
2023-03-21T20:33:02.745Z,206.57
2023-03-21T20:43:29.065Z,208.43
2023-03-21T20:53:26.906Z,183.63
2023-03-21T21:03:28.808Z,223.82
2023-03-21T21:13:30.891Z,214.82
2023-03-21T21:23:34.198Z,203.00
2023-03-21T21:33:37.089Z,143.70
2023-03-21T21:43:38.862Z,194.45
2023-03-21T21:53:40.651Z,123.13
2023-03-21T22:03:42.517Z,128.07
2023-03-21T22:13:45.424Z,148.05
2023-03-21T22:23:47.217Z,157.00
2023-03-21T22:33:49.094Z,151.38
2023-03-21T22:43:50.864Z,137.35
2023-03-21T22:53:52.698Z,144.70
2023-03-21T23:03:55.157Z,107.63
2023-03-21T23:14:07.183Z,137.00
2023-03-21T23:24:10.767Z,160.20
2023-03-21T23:34:13.389Z,128.32
2023-03-21T23:44:15.291Z,113.13
2023-03-21T23:54:17.191Z,105.75
